Time;durP1;ratioP1;P1;durP2;ratioP2;P2;SDS_P1;SDS_P2;PMS_P1;PMS_P2;Temp;Humidity;BMP_temperature;BMP_pressure;BME280_temperature;BME280_humidity;BME280_pressure;Samples;Min_cycle;Max_cycle;Signal;HPM_P1;HPM_P2
2021/01/17 00:00:45;;;;;;;;;;;6.90;99.90;;;;;;5099037;28;19904;-52
2021/01/17 00:03:11;;;;;;;;;;;6.80;99.90;;;;;;5117432;28;19939;-51
2021/01/17 00:05:37;;;;;;;;;;;6.90;99.90;;;;;;5117387;28;20252;-52
2021/01/17 00:08:06;;;;;;;;;;;6.90;99.90;;;;;;5116738;28;19998;-52
2021/01/17 00:10:33;;;;;;;;;;;6.90;99.90;;;;;;5121576;28;19914;-53
2021/01/17 00:12:58;;;;;;;;;;;6.80;99.90;;;;;;5121142;28;19923;-51
2021/01/17 00:15:24;;;;;;;;;;;6.90;99.90;;;;;;5121506;28;19908;-51
2021/01/17 00:17:50;;;;;;;;;;;6.90;99.90;;;;;;5120916;28;19949;-53
2021/01/17 00:20:20;;;;;;;;;;;7.00;99.90;;;;;;5121347;28;19911;-50
2021/01/17 00:22:46;;;;;;;;;;;7.00;99.90;;;;;;5120895;28;19972;-52
2021/01/17 00:25:15;;;;;;;;;;;7.00;99.90;;;;;;5121122;28;19907;-53
2021/01/17 00:27:41;;;;;;;;;;;7.00;99.90;;;;;;5121330;28;19908;-51
2021/01/17 00:30:08;;;;;;;;;;;7.00;99.90;;;;;;5120812;28;19915;-51
2021/01/17 00:32:33;;;;;;;;;;;7.00;99.90;;;;;;5121054;28;19993;-52
2021/01/17 00:34:59;;;;;;;;;;;7.00;99.90;;;;;;5120721;28;20274;-52
2021/01/17 00:37:25;;;;;;;;;;;7.10;99.90;;;;;;5121096;28;20229;-52
2021/01/17 00:39:50;;;;;;;;;;;7.10;99.90;;;;;;5120146;28;19994;-52
2021/01/17 00:42:17;;;;;;;;;;;7.10;99.90;;;;;;5120794;28;19912;-52
2021/01/17 00:44:43;;;;;;;;;;;7.10;99.90;;;;;;5120252;28;19999;-52
2021/01/17 00:47:12;;;;;;;;;;;7.10;99.90;;;;;;5120672;28;19912;-52
2021/01/17 00:49:37;;;;;;;;;;;7.20;99.90;;;;;;5120064;28;19912;-52
2021/01/17 00:52:03;;;;;;;;;;;7.20;99.90;;;;;;5120385;28;19984;-52
2021/01/17 00:54:29;;;;;;;;;;;7.10;99.90;;;;;;5119730;28;19994;-52
2021/01/17 00:56:54;;;;;;;;;;;7.10;99.90;;;;;;5120443;28;19943;-52
2021/01/17 00:59:20;;;;;;;;;;;7.10;99.90;;;;;;5119646;28;19908;-52
2021/01/17 01:01:46;;;;;;;;;;;7.00;99.90;;;;;;5120333;28;19904;-52
2021/01/17 01:04:13;;;;;;;;;;;7.00;99.90;;;;;;5119536;28;19904;-52
2021/01/17 01:06:38;;;;;;;;;;;7.00;99.90;;;;;;5120151;28;19911;-52
2021/01/17 01:09:06;;;;;;;;;;;7.00;99.90;;;;;;5119763;28;19908;-52
2021/01/17 01:11:31;;;;;;;;;;;6.90;99.90;;;;;;5120100;28;19966;-52
2021/01/17 01:13:57;;;;;;;;;;;6.90;99.90;;;;;;5119492;28;19915;-52
2021/01/17 01:16:22;;;;;;;;;;;6.80;99.90;;;;;;5119430;28;20342;-52
2021/01/17 01:18:48;;;;;;;;;;;6.80;99.90;;;;;;5119730;28;19997;-52
2021/01/17 01:21:14;;;;;;;;;;;6.80;99.90;;;;;;5118411;28;19908;-51
2021/01/17 01:23:42;;;;;;;;;;;6.70;99.90;;;;;;5119809;28;20203;-52
2021/01/17 01:26:07;;;;;;;;;;;6.70;99.90;;;;;;5102136;28;19948;-51
2021/01/17 01:28:33;;;;;;;;;;;6.60;99.90;;;;;;5098561;28;19996;-52
2021/01/17 01:30:58;;;;;;;;;;;6.60;99.90;;;;;;5098588;28;19931;-52
2021/01/17 01:33:24;;;;;;;;;;;6.60;99.90;;;;;;5081241;28;20321;-52
2021/01/17 01:35:49;;;;;;;;;;;6.50;99.90;;;;;;5098942;28;20203;-52
2021/01/17 01:38:15;;;;;;;;;;;6.50;99.90;;;;;;5099261;28;19915;-52
2021/01/17 01:40:51;;;;;;;;;;;6.50;99.90;;;;;;5098862;28;19908;-51
2021/01/17 01:43:23;;;;;;;;;;;6.60;99.90;;;;;;5099049;28;19914;-52
2021/01/17 01:45:50;;;;;;;;;;;6.50;99.90;;;;;;5098734;28;20307;-52
2021/01/17 01:48:16;;;;;;;;;;;6.50;99.90;;;;;;5099079;28;19904;-52
2021/01/17 01:50:42;;;;;;;;;;;6.50;99.90;;;;;;5098386;28;19919;-52
2021/01/17 01:53:08;;;;;;;;;;;6.50;99.90;;;;;;5098534;28;19912;-52
2021/01/17 01:55:33;;;;;;;;;;;6.50;99.90;;;;;;5098535;28;19982;-52
2021/01/17 01:58:00;;;;;;;;;;;6.60;99.90;;;;;;5098495;28;19997;-51
2021/01/17 02:00:25;;;;;;;;;;;6.60;99.90;;;;;;5098427;28;19908;-52
2021/01/17 02:02:51;;;;;;;;;;;6.60;99.90;;;;;;5098729;28;20387;-52
2021/01/17 02:05:16;;;;;;;;;;;6.50;99.90;;;;;;5098640;28;20319;-51
2021/01/17 02:07:49;;;;;;;;;;;6.60;99.90;;;;;;5098853;28;19986;-51
2021/01/17 02:10:17;;;;;;;;;;;6.50;99.90;;;;;;5098597;28;19904;-51
2021/01/17 02:12:46;;;;;;;;;;;6.60;99.90;;;;;;5098388;28;19908;-52
2021/01/17 02:15:21;;;;;;;;;;;6.60;99.90;;;;;;5098448;28;19904;-52
2021/01/17 02:17:48;;;;;;;;;;;6.60;99.90;;;;;;5098686;28;19943;-51
2021/01/17 02:20:19;;;;;;;;;;;6.60;99.90;;;;;;5115995;28;19907;-51
2021/01/17 02:23:04;;;;;;;;;;;6.60;99.90;;;;;;5118737;28;19904;-51
2021/01/17 02:25:31;;;;;;;;;;;6.60;99.90;;;;;;5106661;28;20003;-51
2021/01/17 02:27:57;;;;;;;;;;;6.50;99.90;;;;;;5098400;28;19904;-52
2021/01/17 02:30:25;;;;;;;;;;;6.60;99.90;;;;;;5098298;28;19999;-51
2021/01/17 02:33:00;;;;;;;;;;;6.50;99.90;;;;;;5098062;28;19953;-52
2021/01/17 02:35:28;;;;;;;;;;;6.60;99.90;;;;;;5098103;28;19904;-51
2021/01/17 02:37:57;;;;;;;;;;;6.60;99.90;;;;;;5115670;28;19948;-51
2021/01/17 02:40:27;;;;;;;;;;;6.60;99.90;;;;;;5118075;28;19951;-52
2021/01/17 02:42:53;;;;;;;;;;;6.60;99.90;;;;;;5118476;28;19904;-52
2021/01/17 02:45:19;;;;;;;;;;;6.60;99.90;;;;;;5118394;28;19907;-52
2021/01/17 02:47:45;;;;;;;;;;;6.60;99.90;;;;;;5118460;28;20033;-52
2021/01/17 02:50:11;;;;;;;;;;;6.50;99.90;;;;;;5117932;28;20352;-52
2021/01/17 02:52:57;;;;;;;;;;;6.50;99.90;;;;;;5118266;28;19919;-52
2021/01/17 02:55:23;;;;;;;;;;;6.50;99.90;;;;;;5098862;28;19926;-52
2021/01/17 02:57:50;;;;;;;;;;;6.50;99.90;;;;;;5118290;28;19915;-52
2021/01/17 03:00:17;;;;;;;;;;;6.40;99.90;;;;;;5117678;28;20003;-52
2021/01/17 03:02:43;;;;;;;;;;;6.40;99.90;;;;;;5117452;28;20279;-52
2021/01/17 03:05:13;;;;;;;;;;;6.40;99.90;;;;;;5117483;28;20002;-52
2021/01/17 03:07:39;;;;;;;;;;;6.40;99.90;;;;;;5118178;28;19915;-52
2021/01/17 03:10:06;;;;;;;;;;;6.40;99.90;;;;;;5117983;28;19908;-52
2021/01/17 03:12:31;;;;;;;;;;;6.40;99.90;;;;;;5118004;28;19907;-52
2021/01/17 03:14:59;;;;;;;;;;;6.40;99.90;;;;;;5117908;28;20317;-52
2021/01/17 03:17:24;;;;;;;;;;;6.40;99.90;;;;;;5117809;28;19911;-52
2021/01/17 03:19:50;;;;;;;;;;;6.50;99.90;;;;;;5116892;28;19904;-52
2021/01/17 03:22:15;;;;;;;;;;;6.50;99.90;;;;;;5117886;28;19908;-52
2021/01/17 03:24:41;;;;;;;;;;;6.50;99.90;;;;;;5117034;28;19960;-52
2021/01/17 03:27:06;;;;;;;;;;;6.50;99.90;;;;;;5117634;28;19907;-53
2021/01/17 03:29:32;;;;;;;;;;;6.50;99.90;;;;;;5117043;28;20334;-52
2021/01/17 03:31:57;;;;;;;;;;;6.60;99.90;;;;;;5117126;28;19911;-52
2021/01/17 03:34:23;;;;;;;;;;;6.60;99.90;;;;;;5117446;28;19946;-52
2021/01/17 03:36:48;;;;;;;;;;;6.50;99.90;;;;;;5117823;28;19998;-52
2021/01/17 03:39:14;;;;;;;;;;;6.50;99.90;;;;;;5117062;28;19930;-52
2021/01/17 03:41:39;;;;;;;;;;;6.50;99.90;;;;;;5099302;28;19911;-52
2021/01/17 03:44:05;;;;;;;;;;;6.40;99.90;;;;;;5119112;28;20393;-52
2021/01/17 03:46:31;;;;;;;;;;;6.40;99.90;;;;;;5121696;28;19907;-52
2021/01/17 03:48:56;;;;;;;;;;;6.30;99.90;;;;;;5121558;28;19911;-52
2021/01/17 03:51:22;;;;;;;;;;;6.20;99.90;;;;;;5121775;28;19985;-52
2021/01/17 03:53:48;;;;;;;;;;;6.20;99.90;;;;;;5121755;28;19907;-52
2021/01/17 03:56:13;;;;;;;;;;;6.20;99.90;;;;;;5121703;28;19988;-52
2021/01/17 03:58:39;;;;;;;;;;;6.20;99.90;;;;;;5121602;28;19914;-52
2021/01/17 04:01:04;;;;;;;;;;;6.20;99.90;;;;;;5121782;28;19908;-52
2021/01/17 04:03:30;;;;;;;;;;;6.10;99.90;;;;;;5102743;28;20207;-52
2021/01/17 04:05:55;;;;;;;;;;;6.20;99.90;;;;;;5121015;28;19915;-52
2021/01/17 04:08:21;;;;;;;;;;;6.20;99.90;;;;;;5121138;28;19926;-52
2021/01/17 04:10:46;;;;;;;;;;;6.10;99.90;;;;;;5121342;28;19911;-52
2021/01/17 04:13:12;;;;;;;;;;;6.10;99.90;;;;;;5120841;28;19911;-52
2021/01/17 04:15:37;;;;;;;;;;;6.10;99.90;;;;;;5121217;28;19976;-52
2021/01/17 04:18:03;;;;;;;;;;;6.10;99.90;;;;;;5120587;28;19960;-51
2021/01/17 04:20:28;;;;;;;;;;;6.10;99.90;;;;;;5120892;28;19967;-51
2021/01/17 04:23:01;;;;;;;;;;;6.10;99.90;;;;;;5120897;28;19912;-52
2021/01/17 04:25:26;;;;;;;;;;;6.10;99.90;;;;;;5109282;28;20010;-52
2021/01/17 04:27:52;;;;;;;;;;;6.00;99.90;;;;;;5100963;28;20278;-52
2021/01/17 04:30:18;;;;;;;;;;;6.00;99.90;;;;;;5101053;28;19912;-52
2021/01/17 04:32:43;;;;;;;;;;;5.90;99.90;;;;;;5100486;28;19912;-52
2021/01/17 04:35:09;;;;;;;;;;;5.80;99.90;;;;;;5100443;28;19968;-52
2021/01/17 04:37:34;;;;;;;;;;;5.70;99.90;;;;;;5100387;28;20225;-51
2021/01/17 04:40:00;;;;;;;;;;;5.80;99.90;;;;;;5100325;28;19910;-51
2021/01/17 04:42:30;;;;;;;;;;;5.90;99.90;;;;;;5100235;28;20002;-52
2021/01/17 04:45:01;;;;;;;;;;;5.90;99.90;;;;;;5100307;28;19904;-52
2021/01/17 04:47:27;;;;;;;;;;;5.90;99.90;;;;;;5100869;28;20263;-51
2021/01/17 04:49:54;;;;;;;;;;;6.00;99.90;;;;;;5100072;28;19977;-51
2021/01/17 04:52:24;;;;;;;;;;;6.00;99.90;;;;;;5100311;28;19911;-51
2021/01/17 04:54:52;;;;;;;;;;;5.90;99.90;;;;;;5099869;28;19949;-51
2021/01/17 04:57:37;;;;;;;;;;;5.90;99.90;;;;;;5100229;28;19943;-51
2021/01/17 05:00:07;;;;;;;;;;;5.80;99.90;;;;;;5100001;28;19987;-51
2021/01/17 05:02:51;;;;;;;;;;;5.80;99.90;;;;;;5100025;28;19998;-51
2021/01/17 05:05:21;;;;;;;;;;;5.70;99.90;;;;;;5098777;28;19904;-52
2021/01/17 05:08:05;;;;;;;;;;;5.80;99.90;;;;;;5099290;28;20223;-52
2021/01/17 05:10:38;;;;;;;;;;;5.70;99.90;;;;;;5099438;28;20286;-52
2021/01/17 05:13:08;;;;;;;;;;;5.60;99.90;;;;;;5099295;28;19919;-52
2021/01/17 05:15:36;;;;;;;;;;;5.60;99.90;;;;;;5099569;28;19991;-51
2021/01/17 05:18:02;;;;;;;;;;;5.60;99.90;;;;;;5099200;28;19904;-51
2021/01/17 05:20:27;;;;;;;;;;;5.70;99.90;;;;;;5099471;28;19998;-52
2021/01/17 05:22:55;;;;;;;;;;;5.70;99.90;;;;;;5099341;28;20214;-51
2021/01/17 05:25:24;;;;;;;;;;;5.60;99.90;;;;;;5098911;28;19911;-51
2021/01/17 05:27:51;;;;;;;;;;;5.50;99.90;;;;;;5081166;28;19911;-51
2021/01/17 05:30:17;;;;;;;;;;;5.50;99.90;;;;;;5098873;28;19911;-51
2021/01/17 05:32:43;;;;;;;;;;;5.40;99.90;;;;;;5099177;28;19912;-51
2021/01/17 05:35:09;;;;;;;;;;;5.40;99.90;;;;;;5098976;28;19912;-52
2021/01/17 05:37:45;;;;;;;;;;;5.40;99.90;;;;;;5099179;28;20319;-51
2021/01/17 05:40:11;;;;;;;;;;;5.50;99.90;;;;;;5098553;28;19961;-51
2021/01/17 05:42:41;;;;;;;;;;;5.50;99.90;;;;;;5098984;28;20016;-51
2021/01/17 05:45:11;;;;;;;;;;;5.60;99.90;;;;;;5098576;28;19904;-51
2021/01/17 05:47:37;;;;;;;;;;;5.70;99.90;;;;;;5098738;28;19904;-52
2021/01/17 05:50:10;;;;;;;;;;;5.60;99.90;;;;;;5098599;28;20243;-52
2021/01/17 05:52:36;;;;;;;;;;;5.50;99.90;;;;;;5098522;28;19908;-52
2021/01/17 05:55:02;;;;;;;;;;;5.50;99.90;;;;;;5098600;28;19991;-52
2021/01/17 05:57:28;;;;;;;;;;;5.40;99.90;;;;;;5098775;28;19908;-52
2021/01/17 05:59:54;;;;;;;;;;;5.40;99.90;;;;;;5098543;28;19998;-52
2021/01/17 06:02:20;;;;;;;;;;;5.40;99.90;;;;;;5098606;28;19943;-52
2021/01/17 06:04:54;;;;;;;;;;;5.40;99.90;;;;;;5098434;28;19920;-51
2021/01/17 06:07:21;;;;;;;;;;;5.50;99.90;;;;;;5097529;28;20293;-51
2021/01/17 06:09:47;;;;;;;;;;;5.50;99.90;;;;;;5080386;28;19904;-51
2021/01/17 06:12:13;;;;;;;;;;;5.60;99.90;;;;;;5080133;28;19912;-51
2021/01/17 06:14:38;;;;;;;;;;;5.60;99.90;;;;;;5098125;28;19919;-51
2021/01/17 06:17:05;;;;;;;;;;;5.50;99.90;;;;;;5098199;28;19908;-51
2021/01/17 06:19:31;;;;;;;;;;;5.50;99.90;;;;;;5098462;28;20180;-51
2021/01/17 06:21:58;;;;;;;;;;;5.50;99.90;;;;;;5098151;28;19943;-51
2021/01/17 06:24:53;;;;;;;;;;;5.50;99.90;;;;;;5100623;28;19906;-51
2021/01/17 06:27:20;;;;;;;;;;;5.40;99.90;;;;;;5096735;28;20314;-51
2021/01/17 06:29:46;;;;;;;;;;;5.40;99.90;;;;;;5118078;28;19903;-51
2021/01/17 06:32:12;;;;;;;;;;;5.40;99.90;;;;;;5118275;28;19964;-52
2021/01/17 06:34:42;;;;;;;;;;;5.30;99.90;;;;;;5117973;28;19904;-51
2021/01/17 06:37:09;;;;;;;;;;;5.10;99.90;;;;;;5118395;28;20210;-52
2021/01/17 06:39:40;;;;;;;;;;;5.00;99.90;;;;;;5117984;28;19904;-52
2021/01/17 06:42:08;;;;;;;;;;;4.90;99.90;;;;;;5118786;28;20294;-50
2021/01/17 06:44:34;;;;;;;;;;;4.80;99.90;;;;;;5118018;28;20310;-52
2021/01/17 06:47:00;;;;;;;;;;;4.70;99.90;;;;;;5117993;28;19908;-52
2021/01/17 06:49:26;;;;;;;;;;;4.70;99.90;;;;;;5117817;28;19910;-52
2021/01/17 06:51:52;;;;;;;;;;;4.70;99.90;;;;;;5117577;28;20338;-51
2021/01/17 06:54:19;;;;;;;;;;;4.60;99.90;;;;;;5117706;28;19904;-51
2021/01/17 06:56:46;;;;;;;;;;;4.70;99.90;;;;;;5117915;28;19920;-51
2021/01/17 06:59:11;;;;;;;;;;;4.70;99.90;;;;;;5117935;28;20013;-51
2021/01/17 07:01:43;;;;;;;;;;;4.80;99.90;;;;;;5117525;28;20360;-51
2021/01/17 07:04:09;;;;;;;;;;;4.90;99.90;;;;;;5118084;28;19952;-51
2021/01/17 07:06:34;;;;;;;;;;;4.90;99.90;;;;;;5117406;28;20220;-51
2021/01/17 07:09:06;;;;;;;;;;;4.90;99.90;;;;;;5117757;28;19911;-51
2021/01/17 07:11:33;;;;;;;;;;;5.00;99.90;;;;;;5117565;28;19911;-52
2021/01/17 07:14:04;;;;;;;;;;;5.00;99.90;;;;;;5117257;28;19915;-51
2021/01/17 07:16:34;;;;;;;;;;;4.90;99.90;;;;;;5117783;28;19910;-52
2021/01/17 07:19:01;;;;;;;;;;;4.90;99.90;;;;;;5116370;28;19999;-51
2021/01/17 07:21:26;;;;;;;;;;;4.90;99.90;;;;;;5117568;28;19908;-53
2021/01/17 07:23:55;;;;;;;;;;;5.00;99.90;;;;;;5117403;28;20004;-52
2021/01/17 07:26:25;;;;;;;;;;;5.00;99.90;;;;;;5098209;28;19904;-51
2021/01/17 07:28:52;;;;;;;;;;;4.90;99.90;;;;;;5097255;28;19994;-52
2021/01/17 07:31:20;;;;;;;;;;;4.90;99.90;;;;;;5096752;28;19904;-53
2021/01/17 07:33:46;;;;;;;;;;;4.90;99.90;;;;;;5097180;28;19904;-52
2021/01/17 07:36:18;;;;;;;;;;;4.90;99.90;;;;;;5095714;28;19911;-51
2021/01/17 07:38:53;;;;;;;;;;;4.90;99.90;;;;;;5097189;28;19925;-52
2021/01/17 07:41:21;;;;;;;;;;;4.90;99.90;;;;;;5096645;28;19908;-51
2021/01/17 07:43:48;;;;;;;;;;;4.90;99.90;;;;;;5096525;28;19904;-52
2021/01/17 07:46:15;;;;;;;;;;;5.00;99.90;;;;;;5104924;28;20215;-52
2021/01/17 07:48:41;;;;;;;;;;;5.00;99.90;;;;;;5117695;28;19998;-51
2021/01/17 07:51:07;;;;;;;;;;;5.10;99.90;;;;;;5098757;28;20245;-52
2021/01/17 07:53:36;;;;;;;;;;;5.10;99.90;;;;;;5117068;28;19904;-52
2021/01/17 07:56:09;;;;;;;;;;;5.10;99.90;;;;;;5117671;28;19903;-51
2021/01/17 07:58:56;;;;;;;;;;;5.20;99.90;;;;;;5117442;28;19949;-51
2021/01/17 08:01:41;;;;;;;;;;;5.20;99.90;;;;;;5117240;28;19964;-51
2021/01/17 08:04:07;;;;;;;;;;;5.10;99.90;;;;;;5117241;28;19994;-51
2021/01/17 08:06:36;;;;;;;;;;;5.10;99.90;;;;;;5117370;28;19939;-51
2021/01/17 08:09:12;;;;;;;;;;;5.00;99.90;;;;;;5117245;28;19903;-51
2021/01/17 08:11:42;;;;;;;;;;;4.90;99.90;;;;;;5117442;28;20399;-51
2021/01/17 08:14:16;;;;;;;;;;;4.70;99.90;;;;;;5117199;28;19994;-52
2021/01/17 08:17:00;;;;;;;;;;;4.50;99.90;;;;;;5117429;28;19925;-52
2021/01/17 08:19:35;;;;;;;;;;;4.30;99.90;;;;;;5117018;28;19908;-52
2021/01/17 08:22:13;;;;;;;;;;;4.20;99.90;;;;;;5117203;28;19907;-50
2021/01/17 08:24:38;;;;;;;;;;;4.10;99.90;;;;;;5117180;28;19907;-52
2021/01/17 08:27:04;;;;;;;;;;;4.10;99.90;;;;;;5117315;28;19911;-51
2021/01/17 08:29:29;;;;;;;;;;;4.10;99.90;;;;;;5117503;28;19908;-53
2021/01/17 08:31:55;;;;;;;;;;;4.10;99.90;;;;;;5102690;28;19912;-50
2021/01/17 08:34:24;;;;;;;;;;;4.10;99.90;;;;;;5120895;28;19915;-52
2021/01/17 08:36:50;;;;;;;;;;;4.10;99.90;;;;;;5120960;28;19904;-51
2021/01/17 08:39:35;;;;;;;;;;;4.10;99.90;;;;;;5120668;28;19956;-52
2021/01/17 08:42:21;;;;;;;;;;;4.20;99.90;;;;;;5120910;28;19904;-52
2021/01/17 08:44:46;;;;;;;;;;;4.10;99.90;;;;;;5120782;28;19939;-52
2021/01/17 08:47:22;;;;;;;;;;;4.00;99.90;;;;;;5121073;28;19908;-52
2021/01/17 08:49:48;;;;;;;;;;;4.10;99.90;;;;;;5120141;28;19915;-52
2021/01/17 08:52:13;;;;;;;;;;;4.10;99.90;;;;;;5120542;28;20256;-52
2021/01/17 08:54:49;;;;;;;;;;;4.10;99.90;;;;;;5120513;28;19914;-52
2021/01/17 08:57:33;;;;;;;;;;;4.10;99.90;;;;;;5120652;28;19943;-52
2021/01/17 08:59:58;;;;;;;;;;;4.20;99.90;;;;;;5120372;28;19908;-51
2021/01/17 09:02:24;;;;;;;;;;;4.30;99.90;;;;;;5120644;28;20213;-51
2021/01/17 09:04:50;;;;;;;;;;;4.40;99.90;;;;;;5120296;28;19910;-52
2021/01/17 09:07:35;;;;;;;;;;;4.50;99.90;;;;;;5120404;28;19912;-52
2021/01/17 09:10:13;;;;;;;;;;;4.60;99.90;;;;;;5120159;28;19904;-52
2021/01/17 09:12:38;;;;;;;;;;;4.60;99.90;;;;;;5120296;28;19961;-51
2021/01/17 09:15:14;;;;;;;;;;;4.70;99.90;;;;;;5119901;28;20267;-52
2021/01/17 09:17:40;;;;;;;;;;;4.70;99.90;;;;;;5120468;28;19903;-52
2021/01/17 09:20:12;;;;;;;;;;;4.80;99.90;;;;;;5119783;28;19915;-52
2021/01/17 09:22:40;;;;;;;;;;;4.90;99.90;;;;;;5120150;28;19911;-52
2021/01/17 09:25:07;;;;;;;;;;;4.90;99.90;;;;;;5111137;28;19948;-52
2021/01/17 09:27:32;;;;;;;;;;;5.00;99.90;;;;;;5099903;28;19912;-52
2021/01/17 09:29:58;;;;;;;;;;;5.10;99.90;;;;;;5098862;28;20382;-52
2021/01/17 09:32:24;;;;;;;;;;;5.10;99.90;;;;;;5099304;28;19908;-52
2021/01/17 09:34:49;;;;;;;;;;;5.20;99.90;;;;;;5098911;28;19943;-52
2021/01/17 09:37:17;;;;;;;;;;;5.20;99.90;;;;;;5098629;28;19961;-52
2021/01/17 09:39:44;;;;;;;;;;;5.30;99.90;;;;;;5099188;28;19911;-52
2021/01/17 09:42:10;;;;;;;;;;;5.40;99.90;;;;;;5097833;28;19911;-53
2021/01/17 09:44:36;;;;;;;;;;;5.50;99.90;;;;;;5098510;28;20338;-53
2021/01/17 09:47:02;;;;;;;;;;;5.60;99.90;;;;;;5098866;28;19994;-52
2021/01/17 09:49:28;;;;;;;;;;;5.90;99.90;;;;;;5098894;28;19947;-53
2021/01/17 09:51:54;;;;;;;;;;;6.00;99.90;;;;;;5098538;28;19912;-53
2021/01/17 09:54:20;;;;;;;;;;;6.20;99.90;;;;;;5098997;28;19965;-50
2021/01/17 09:56:46;;;;;;;;;;;6.20;99.90;;;;;;5098250;28;20295;-53
2021/01/17 09:59:15;;;;;;;;;;;6.30;99.90;;;;;;5098799;28;19912;-52
2021/01/17 10:01:42;;;;;;;;;;;6.30;99.90;;;;;;5098023;28;19954;-57
2021/01/17 10:04:08;;;;;;;;;;;6.40;99.90;;;;;;5080586;28;20235;-57
2021/01/17 10:06:33;;;;;;;;;;;6.50;99.90;;;;;;5097553;28;19911;-57
2021/01/17 10:08:59;;;;;;;;;;;6.60;99.90;;;;;;5098726;28;19961;-57
2021/01/17 10:11:25;;;;;;;;;;;6.50;99.90;;;;;;5097961;28;19911;-57
2021/01/17 10:13:50;;;;;;;;;;;6.60;99.90;;;;;;5098212;28;19961;-57
2021/01/17 10:16:22;;;;;;;;;;;6.80;99.90;;;;;;5098449;28;19908;-57
2021/01/17 10:18:48;;;;;;;;;;;6.90;99.90;;;;;;5098589;28;20382;-57
2021/01/17 10:21:15;;;;;;;;;;;7.00;99.90;;;;;;5080484;28;19987;-57
2021/01/17 10:23:41;;;;;;;;;;;7.00;99.90;;;;;;5098196;28;19904;-57
2021/01/17 10:26:07;;;;;;;;;;;6.90;99.90;;;;;;5115067;28;19915;-57
2021/01/17 10:28:33;;;;;;;;;;;6.80;99.90;;;;;;5118336;28;19918;-56
2021/01/17 10:30:59;;;;;;;;;;;6.80;99.90;;;;;;5117802;28;19904;-56
2021/01/17 10:33:28;;;;;;;;;;;7.10;99.90;;;;;;5118593;28;19912;-57
2021/01/17 10:35:53;;;;;;;;;;;7.30;99.90;;;;;;5118355;28;20308;-57
2021/01/17 10:38:20;;;;;;;;;;;7.20;99.90;;;;;;5118745;28;20001;-57
2021/01/17 10:40:47;;;;;;;;;;;7.00;99.90;;;;;;5118575;28;19907;-57
2021/01/17 10:43:12;;;;;;;;;;;7.10;99.90;;;;;;5118190;28;19904;-57
2021/01/17 10:45:38;;;;;;;;;;;7.20;99.90;;;;;;5118015;28;19904;-57
2021/01/17 10:48:06;;;;;;;;;;;7.20;99.90;;;;;;5118562;28;19957;-57
2021/01/17 10:50:39;;;;;;;;;;;7.20;99.90;;;;;;5099625;28;20211;-57
2021/01/17 10:53:04;;;;;;;;;;;7.30;99.90;;;;;;5117932;28;19922;-56
2021/01/17 10:55:35;;;;;;;;;;;7.30;99.90;;;;;;5118335;28;19907;-56
2021/01/17 10:58:01;;;;;;;;;;;7.30;99.90;;;;;;5117868;28;19911;-56
2021/01/17 11:00:27;;;;;;;;;;;7.30;99.90;;;;;;5118209;28;19990;-56
2021/01/17 11:03:06;;;;;;;;;;;7.40;99.90;;;;;;5118018;28;19943;-56
2021/01/17 11:05:32;;;;;;;;;;;7.40;99.90;;;;;;5117818;28;19904;-56
2021/01/17 11:07:57;;;;;;;;;;;7.40;99.90;;;;;;5096987;28;20188;-56
2021/01/17 11:10:23;;;;;;;;;;;7.40;99.90;;;;;;5097503;28;19908;-55
2021/01/17 11:12:49;;;;;;;;;;;7.30;99.90;;;;;;5099957;28;19963;-53
2021/01/17 11:15:16;;;;;;;;;;;7.60;99.90;;;;;;5111900;28;19998;-53
2021/01/17 11:17:42;;;;;;;;;;;7.70;99.90;;;;;;5117824;28;20316;-53
2021/01/17 11:20:09;;;;;;;;;;;7.80;99.90;;;;;;5117404;28;19910;-54
2021/01/17 11:22:34;;;;;;;;;;;7.90;99.90;;;;;;5118180;28;20183;-53
2021/01/17 11:25:00;;;;;;;;;;;8.00;99.90;;;;;;5109654;28;19910;-53
2021/01/17 11:27:35;;;;;;;;;;;8.10;99.90;;;;;;5097015;28;19911;-53
2021/01/17 11:30:01;;;;;;;;;;;8.10;99.90;;;;;;5099901;28;19908;-53
2021/01/17 11:32:35;;;;;;;;;;;8.20;99.90;;;;;;5114599;28;19908;-53
2021/01/17 11:35:01;;;;;;;;;;;8.00;99.90;;;;;;5117379;28;19904;-53
2021/01/17 11:37:37;;;;;;;;;;;8.10;99.90;;;;;;5117519;28;19990;-53
2021/01/17 11:40:04;;;;;;;;;;;8.00;99.90;;;;;;5117707;28;20012;-53
2021/01/17 11:42:29;;;;;;;;;;;8.10;99.90;;;;;;5117116;28;20001;-52
2021/01/17 11:44:56;;;;;;;;;;;8.00;99.90;;;;;;5117768;28;19947;-52
2021/01/17 11:47:22;;;;;;;;;;;8.00;99.90;;;;;;5110752;28;20218;-53
2021/01/17 11:49:48;;;;;;;;;;;8.00;99.90;;;;;;5114426;28;19915;-54
2021/01/17 11:52:13;;;;;;;;;;;8.00;99.90;;;;;;5117716;28;19918;-56
2021/01/17 11:54:39;;;;;;;;;;;8.00;99.90;;;;;;5117282;28;19977;-56
2021/01/17 11:57:06;;;;;;;;;;;8.20;99.90;;;;;;5117569;28;19911;-55
2021/01/17 11:59:32;;;;;;;;;;;8.10;99.90;;;;;;5115943;28;19947;-56
2021/01/17 12:02:17;;;;;;;;;;;8.10;99.90;;;;;;5096704;28;20605;-57
2021/01/17 12:04:43;;;;;;;;;;;8.10;99.90;;;;;;5096959;28;19995;-56
2021/01/17 12:07:08;;;;;;;;;;;8.30;99.90;;;;;;5100875;28;20268;-56
2021/01/17 12:09:34;;;;;;;;;;;8.40;99.90;;;;;;5100009;28;19916;-56
2021/01/17 12:12:13;;;;;;;;;;;8.50;99.90;;;;;;5100102;28;19908;-56
2021/01/17 12:14:39;;;;;;;;;;;8.50;99.90;;;;;;5100180;28;19916;-56
2021/01/17 12:17:05;;;;;;;;;;;8.50;99.90;;;;;;5100454;28;19908;-56
2021/01/17 12:19:31;;;;;;;;;;;8.40;99.90;;;;;;5088810;28;20245;-55
2021/01/17 12:21:58;;;;;;;;;;;8.40;99.90;;;;;;5100403;28;19922;-57
2021/01/17 12:24:24;;;;;;;;;;;8.50;99.90;;;;;;5103017;28;20314;-57
2021/01/17 12:26:50;;;;;;;;;;;8.50;99.90;;;;;;5120930;28;19910;-56
2021/01/17 12:29:17;;;;;;;;;;;8.40;99.90;;;;;;5120325;28;19908;-57
2021/01/17 12:31:43;;;;;;;;;;;8.30;99.90;;;;;;5102370;28;19915;-55
2021/01/17 12:34:11;;;;;;;;;;;8.20;99.90;;;;;;5120292;28;19908;-55
2021/01/17 12:36:38;;;;;;;;;;;8.20;99.90;;;;;;5120818;28;19905;-54
2021/01/17 12:39:04;;;;;;;;;;;8.30;99.90;;;;;;5114063;28;19908;-54
2021/01/17 12:41:30;;;;;;;;;;;8.30;99.90;;;;;;5106759;28;20003;-55
2021/01/17 12:43:56;;;;;;;;;;;8.30;99.90;;;;;;5099984;28;19904;-54
2021/01/17 12:46:22;;;;;;;;;;;8.30;99.90;;;;;;5099843;28;19998;-56
2021/01/17 12:48:48;;;;;;;;;;;8.30;99.90;;;;;;5102603;28;19950;-56
2021/01/17 12:51:13;;;;;;;;;;;8.30;99.90;;;;;;5119822;28;19961;-55
2021/01/17 12:53:40;;;;;;;;;;;8.30;99.90;;;;;;5120142;28;19911;-55
2021/01/17 12:56:05;;;;;;;;;;;8.40;99.90;;;;;;5120013;28;19908;-56
2021/01/17 12:58:31;;;;;;;;;;;8.30;99.90;;;;;;5119778;28;19976;-56
2021/01/17 13:00:57;;;;;;;;;;;8.30;99.90;;;;;;5120090;28;19904;-55
2021/01/17 13:03:23;;;;;;;;;;;8.40;99.90;;;;;;5119088;28;20401;-55
2021/01/17 13:05:49;;;;;;;;;;;8.20;99.90;;;;;;5119807;28;19954;-56
2021/01/17 13:08:17;;;;;;;;;;;8.20;99.90;;;;;;5119822;28;19907;-57
2021/01/17 13:10:43;;;;;;;;;;;8.20;99.90;;;;;;5119922;28;20037;-57
2021/01/17 13:13:09;;;;;;;;;;;8.20;99.90;;;;;;5119559;28;19964;-57
2021/01/17 13:15:42;;;;;;;;;;;8.20;99.90;;;;;;5118927;28;19910;-56
2021/01/17 13:18:08;;;;;;;;;;;8.20;99.90;;;;;;5100150;28;20207;-56
2021/01/17 13:20:34;;;;;;;;;;;8.20;99.90;;;;;;5102479;28;19914;-56
2021/01/17 13:22:59;;;;;;;;;;;8.20;99.90;;;;;;5099175;28;20303;-57
2021/01/17 13:25:25;;;;;;;;;;;7.90;99.90;;;;;;5098710;28;19962;-56
2021/01/17 13:27:51;;;;;;;;;;;8.00;99.90;;;;;;5098461;28;19958;-55
2021/01/17 13:30:17;;;;;;;;;;;8.20;99.90;;;;;;5104409;28;20056;-55
2021/01/17 13:32:43;;;;;;;;;;;8.10;99.90;;;;;;5114814;28;20010;-55
2021/01/17 13:35:09;;;;;;;;;;;8.10;99.90;;;;;;5119582;28;19951;-55
2021/01/17 13:37:34;;;;;;;;;;;8.10;99.90;;;;;;5119267;28;19907;-55
2021/01/17 13:40:00;;;;;;;;;;;8.00;99.90;;;;;;5119512;28;19908;-55
2021/01/17 13:42:28;;;;;;;;;;;8.00;99.90;;;;;;5118535;28;20329;-56
2021/01/17 13:44:56;;;;;;;;;;;8.00;99.90;;;;;;5118383;28;19907;-56
2021/01/17 13:47:25;;;;;;;;;;;8.10;99.90;;;;;;5118574;28;20244;-56
2021/01/17 13:49:55;;;;;;;;;;;8.20;99.90;;;;;;5118811;28;20388;-56
2021/01/17 13:52:20;;;;;;;;;;;8.20;99.90;;;;;;5117900;28;19908;-56
2021/01/17 13:54:46;;;;;;;;;;;8.20;99.90;;;;;;5117713;28;19915;-55
2021/01/17 13:57:11;;;;;;;;;;;8.20;99.90;;;;;;5097706;28;19912;-56
2021/01/17 13:59:40;;;;;;;;;;;8.20;99.90;;;;;;5097892;28;19919;-56
2021/01/17 14:02:12;;;;;;;;;;;8.00;99.90;;;;;;5098070;28;20349;-56
2021/01/17 14:04:38;;;;;;;;;;;7.90;99.90;;;;;;5098310;28;19904;-55
2021/01/17 14:07:10;;;;;;;;;;;8.00;99.90;;;;;;5097595;28;19908;-55
2021/01/17 14:09:36;;;;;;;;;;;8.00;99.90;;;;;;5098025;28;19962;-55
2021/01/17 14:12:10;;;;;;;;;;;8.10;99.90;;;;;;5097469;28;19912;-55
2021/01/17 14:14:37;;;;;;;;;;;8.00;99.90;;;;;;5097909;28;19918;-55
2021/01/17 14:17:03;;;;;;;;;;;8.10;99.90;;;;;;5115586;28;20321;-55
2021/01/17 14:19:28;;;;;;;;;;;8.10;99.90;;;;;;5118408;28;19904;-55
2021/01/17 14:21:54;;;;;;;;;;;8.10;99.90;;;;;;5118094;28;19967;-55
2021/01/17 14:24:20;;;;;;;;;;;8.00;99.90;;;;;;5099712;28;20370;-55
2021/01/17 14:26:46;;;;;;;;;;;7.90;99.90;;;;;;5118180;28;20353;-55
2021/01/17 14:29:12;;;;;;;;;;;7.90;99.90;;;;;;5117256;28;19903;-56
2021/01/17 14:31:44;;;;;;;;;;;7.90;99.90;;;;;;5110907;28;20057;-55
2021/01/17 14:34:10;;;;;;;;;;;7.80;99.90;;;;;;5107812;28;19908;-55